Time;durP1;ratioP1;P1;durP2;ratioP2;P2;SDS_P1;SDS_P2;PMS_P1;PMS_P2;Temp;Humidity;BMP_temperature;BMP_pressure;BME280_temperature;BME280_humidity;BME280_pressure;Samples;Min_cycle;Max_cycle;Signal;HPM_P1;HPM_P2
2023/12/19 00:02:19;;;;;;;6.45;3.80;;;;;;;-1.12;100.00;98872.91;1223962;75;2930875;-67
2023/12/19 00:04:52;;;;;;;5.25;3.50;;;;;;;-1.16;100.00;98862.09;1224046;75;2920342;-66
2023/12/19 00:07:25;;;;;;;6.05;3.90;;;;;;;-1.20;100.00;98865.88;1224807;75;2919460;-67
2023/12/19 00:09:58;;;;;;;6.45;3.30;;;;;;;-1.30;100.00;98865.41;1223505;75;2930127;-67
2023/12/19 00:12:37;;;;;;;6.70;3.45;;;;;;;-1.27;100.00;98863.09;1224455;75;2920966;-66
2023/12/19 00:15:11;;;;;;;5.70;4.15;;;;;;;-1.27;100.00;98871.97;1223403;75;2938961;-66
2023/12/19 00:17:44;;;;;;;5.05;3.75;;;;;;;-1.27;100.00;98865.78;1224130;75;2924448;-65
2023/12/19 00:20:17;;;;;;;5.45;3.40;;;;;;;-1.37;100.00;98859.16;1223393;75;2926307;-67
2023/12/19 00:22:50;;;;;;;7.00;4.35;;;;;;;-1.57;100.00;98850.50;1223772;75;2923212;-65
2023/12/19 00:25:23;;;;;;;8.80;4.45;;;;;;;-1.58;100.00;98855.09;1224397;75;2917387;-64
2023/12/19 00:27:59;;;;;;;8.60;4.95;;;;;;;-1.68;100.00;98847.69;1220724;75;3064973;-66
2023/12/19 00:30:31;;;;;;;7.75;4.70;;;;;;;-1.55;100.00;98842.84;1223435;75;2919433;-63
2023/12/19 00:33:05;;;;;;;6.35;4.55;;;;;;;-1.55;100.00;98838.25;1222112;75;2967988;-65
2023/12/19 00:35:38;;;;;;;7.60;4.80;;;;;;;-1.49;100.00;98844.09;1223743;75;2932295;-66
2023/12/19 00:38:11;;;;;;;7.45;4.85;;;;;;;-1.56;100.00;98833.25;1223945;75;2926932;-67
2023/12/19 00:40:44;;;;;;;7.25;4.60;;;;;;;-1.46;100.00;98837.97;1224397;75;2921267;-70
2023/12/19 00:43:19;;;;;;;5.10;3.75;;;;;;;-1.42;100.00;98836.13;1221824;75;2973528;-66
2023/12/19 00:45:52;;;;;;;5.10;3.40;;;;;;;-1.41;100.00;98834.97;1223991;75;2919029;-63
2023/12/19 00:48:25;;;;;;;6.20;3.95;;;;;;;-1.44;100.00;98830.34;1224032;75;2938285;-67
2023/12/19 00:50:58;;;;;;;5.00;3.55;;;;;;;-1.39;100.00;98823.88;1223714;75;2921966;-68
2023/12/19 00:53:30;;;;;;;5.90;3.30;;;;;;;-1.40;100.00;98824.97;1223986;75;2917624;-66
2023/12/19 00:56:03;;;;;;;5.25;3.30;;;;;;;-1.42;100.00;98819.19;1224521;83;2918512;-66
2023/12/19 00:58:39;;;;;;;4.95;3.40;;;;;;;-1.51;100.00;98822.19;1224210;75;2931067;-65
2023/12/19 01:01:12;;;;;;;5.35;3.35;;;;;;;-1.57;100.00;98832.47;1224806;75;2922619;-64
2023/12/19 01:03:46;;;;;;;4.85;3.00;;;;;;;-1.61;100.00;98831.66;1224944;75;2924114;-66
2023/12/19 01:06:19;;;;;;;5.35;3.45;;;;;;;-1.76;100.00;98825.31;1223391;75;2927793;-67
2023/12/19 01:08:53;;;;;;;6.55;4.50;;;;;;;-1.80;100.00;98823.75;1224675;75;2923891;-67
2023/12/19 01:11:26;;;;;;;7.85;5.05;;;;;;;-1.72;100.00;98828.84;1223959;75;2923506;-65
2023/12/19 01:14:01;;;;;;;7.20;4.45;;;;;;;-1.63;100.00;98825.13;1223749;75;2924629;-68
2023/12/19 01:16:34;;;;;;;6.90;4.05;;;;;;;-1.67;100.00;98841.16;1224530;75;2923965;-65
2023/12/19 01:19:09;;;;;;;4.85;3.70;;;;;;;-1.59;100.00;98831.28;1222996;75;2958117;-64
2023/12/19 01:21:42;;;;;;;5.15;3.25;;;;;;;-1.64;100.00;98832.38;1224297;75;2919759;-68
2023/12/19 01:24:15;;;;;;;5.50;3.05;;;;;;;-1.66;100.00;98836.56;1224198;75;2916609;-65
2023/12/19 01:26:49;;;;;;;4.50;2.90;;;;;;;-1.83;100.00;98835.19;1224158;75;2931439;-67
2023/12/19 01:29:25;;;;;;;4.10;2.90;;;;;;;-1.86;100.00;98825.97;1223722;75;2923925;-64
2023/12/19 01:31:58;;;;;;;4.10;3.20;;;;;;;-1.85;100.00;98824.84;1223843;75;2917030;-65
2023/12/19 01:34:31;;;;;;;6.10;4.00;;;;;;;-1.96;100.00;98818.56;1224550;75;2925492;-68
2023/12/19 01:37:03;;;;;;;5.15;3.50;;;;;;;-1.93;100.00;98813.22;1223683;75;2926252;-69
2023/12/19 01:39:36;;;;;;;5.25;3.25;;;;;;;-1.85;100.00;98816.78;1223417;75;2937658;-68
2023/12/19 01:42:09;;;;;;;4.60;3.40;;;;;;;-1.84;100.00;98818.31;1222565;75;2925364;-64
2023/12/19 01:44:49;;;;;;;4.90;3.40;;;;;;;-1.93;100.00;98817.81;1222960;75;3030412;-69
2023/12/19 01:47:23;;;;;;;5.85;3.95;;;;;;;-2.00;100.00;98817.72;1224137;75;2921183;-67
2023/12/19 01:49:56;;;;;;;7.80;5.50;;;;;;;-2.05;100.00;98808.06;1223659;75;2926842;-66
2023/12/19 01:52:29;;;;;;;12.95;6.45;;;;;;;-1.97;100.00;98799.00;1223700;75;2927132;-66
2023/12/19 01:55:02;;;;;;;8.05;5.20;;;;;;;-1.91;100.00;98804.81;1224476;75;2915200;-67
2023/12/19 01:57:36;;;;;;;8.45;5.30;;;;;;;-1.91;100.00;98802.13;1224679;75;2924540;-65
2023/12/19 02:00:14;;;;;;;8.25;5.00;;;;;;;-1.90;100.00;98790.28;1224440;75;2920951;-67
2023/12/19 02:02:48;;;;;;;6.60;4.40;;;;;;;-1.93;100.00;98791.75;1223806;75;2922986;-68
2023/12/19 02:05:21;;;;;;;7.25;4.50;;;;;;;-1.95;100.00;98785.19;1224338;75;2923063;-67
2023/12/19 02:07:54;;;;;;;5.25;3.80;;;;;;;-1.96;100.00;98791.72;1224204;75;2923768;-66
2023/12/19 02:10:27;;;;;;;5.70;2.80;;;;;;;-1.93;100.00;98788.28;1224149;75;2921014;-66
2023/12/19 02:13:00;;;;;;;4.95;3.20;;;;;;;-1.89;100.00;98780.31;1223346;75;2923133;-65
2023/12/19 02:15:36;;;;;;;5.55;3.75;;;;;;;-2.01;100.00;98786.66;1224707;75;2910365;-68
2023/12/19 02:18:18;;;;;;;7.10;3.80;;;;;;;-2.09;100.00;98785.00;1223131;75;2923264;-66
2023/12/19 02:20:53;;;;;;;6.50;3.95;;;;;;;-2.02;100.00;98783.22;1224567;75;2925837;-66
2023/12/19 02:23:29;;;;;;;6.70;3.85;;;;;;;-2.00;100.00;98772.09;1223345;75;2943916;-67
2023/12/19 02:26:02;;;;;;;5.65;3.90;;;;;;;-1.96;100.00;98775.63;1224667;75;2928370;-66
2023/12/19 02:28:34;;;;;;;4.95;3.90;;;;;;;-2.02;100.00;98771.69;1223733;75;2926074;-65
2023/12/19 02:31:07;;;;;;;5.85;3.65;;;;;;;-2.12;100.00;98769.66;1223090;75;2924292;-66
2023/12/19 02:33:40;;;;;;;5.60;3.80;;;;;;;-2.12;100.00;98756.22;1224831;75;2918476;-64
2023/12/19 02:36:13;;;;;;;5.70;3.80;;;;;;;-2.04;100.00;98757.88;1223900;75;2930257;-66
2023/12/19 02:38:49;;;;;;;5.45;3.45;;;;;;;-2.13;100.00;98752.78;1224179;75;2934216;-67
2023/12/19 02:41:21;;;;;;;5.00;3.65;;;;;;;-2.00;100.00;98750.63;1224560;75;2926564;-67
2023/12/19 02:43:54;;;;;;;4.35;3.10;;;;;;;-2.11;100.00;98739.78;1223881;75;2915931;-68
2023/12/19 02:46:27;;;;;;;5.80;3.30;;;;;;;-2.07;100.00;98743.28;1223563;75;2922904;-66
2023/12/19 02:49:00;;;;;;;3.45;2.90;;;;;;;-2.18;100.00;98743.16;1224422;75;2922501;-69
2023/12/19 02:51:33;;;;;;;6.15;3.95;;;;;;;-2.40;100.00;98747.44;1224857;75;2886585;-66
2023/12/19 02:54:09;;;;;;;6.60;4.45;;;;;;;-2.46;100.00;98756.16;1224410;75;2934269;-67
2023/12/19 02:56:42;;;;;;;7.25;5.00;;;;;;;-2.44;100.00;98760.03;1223224;75;2961427;-65
2023/12/19 02:59:14;;;;;;;6.30;4.65;;;;;;;-2.31;100.00;98760.56;1223992;75;2926953;-65
2023/12/19 03:01:50;;;;;;;7.05;4.70;;;;;;;-2.31;100.00;98757.91;1223245;75;2924734;-65
2023/12/19 03:04:23;;;;;;;6.90;4.25;;;;;;;-2.33;100.00;98754.81;1223976;75;2918672;-68
2023/12/19 03:06:55;;;;;;;7.50;4.40;;;;;;;-2.25;100.00;98756.47;1222596;75;2934023;-65
2023/12/19 03:09:31;;;;;;;6.90;4.10;;;;;;;-2.24;100.00;98749.19;1223132;75;2923863;-67
2023/12/19 03:12:08;;;;;;;6.20;4.25;;;;;;;-2.23;100.00;98754.19;1223774;75;2923599;-65
2023/12/19 03:14:41;;;;;;;5.45;3.35;;;;;;;-2.26;100.00;98741.50;1223871;75;2923102;-65
2023/12/19 03:17:14;;;;;;;4.95;2.75;;;;;;;-2.18;100.00;98734.34;1223352;75;2933324;-64
2023/12/19 03:19:47;;;;;;;6.15;3.30;;;;;;;-2.22;100.00;98728.91;1223618;75;2920885;-66
2023/12/19 03:22:20;;;;;;;4.45;3.00;;;;;;;-2.28;100.00;98719.66;1223759;75;2922914;-66
2023/12/19 03:24:56;;;;;;;5.95;3.35;;;;;;;-2.32;100.00;98715.38;1223106;75;2920577;-67
2023/12/19 03:27:28;;;;;;;7.55;3.95;;;;;;;-2.34;100.00;98717.63;1222717;75;2935061;-66
2023/12/19 03:30:01;;;;;;;5.35;3.35;;;;;;;-2.32;100.00;98715.38;1224635;75;2919567;-64
2023/12/19 03:32:34;;;;;;;7.40;4.35;;;;;;;-2.34;100.00;98710.34;1194092;75;5362673;-64
2023/12/19 03:35:08;;;;;;;8.95;4.90;;;;;;;-2.40;100.00;98715.28;1223572;75;2928959;-66
2023/12/19 03:37:42;;;;;;;10.15;5.55;;;;;;;-2.38;100.00;98704.19;1223898;75;2927528;-63
2023/12/19 03:40:17;;;;;;;7.75;4.90;;;;;;;-2.35;100.00;98698.09;1223081;75;2918313;-65
2023/12/19 03:42:51;;;;;;;7.95;5.25;;;;;;;-2.32;100.00;98696.59;1223028;75;2928031;-64
2023/12/19 03:45:23;;;;;;;7.45;4.80;;;;;;;-2.33;100.00;98684.31;1223821;75;2927358;-66
2023/12/19 03:47:56;;;;;;;6.75;4.30;;;;;;;-2.31;100.00;98696.22;1223801;75;2927693;-69
2023/12/19 03:50:29;;;;;;;6.55;4.15;;;;;;;-2.48;100.00;98696.75;1223666;75;2929208;-66
2023/12/19 03:53:02;;;;;;;7.30;4.70;;;;;;;-2.47;100.00;98691.03;1224000;75;2925827;-69
2023/12/19 03:55:37;;;;;;;6.95;4.70;;;;;;;-2.37;100.00;98690.41;1223612;75;2925837;-66
2023/12/19 03:58:10;;;;;;;6.10;4.15;;;;;;;-2.40;100.00;98690.38;1223174;75;2930833;-66
2023/12/19 04:00:43;;;;;;;6.65;3.95;;;;;;;-2.45;100.00;98685.34;1223824;75;2930038;-66
2023/12/19 04:03:16;;;;;;;7.35;4.80;;;;;;;-2.40;100.00;98680.41;1221679;75;2928484;-66
2023/12/19 04:05:49;;;;;;;8.45;4.90;;;;;;;-2.43;100.00;98685.72;1222703;75;2925393;-65
2023/12/19 04:08:22;;;;;;;6.10;4.40;;;;;;;-2.52;100.00;98680.66;1192831;75;5189685;-67
2023/12/19 04:10:57;;;;;;;6.05;4.45;;;;;;;-2.30;100.00;98684.38;1223466;75;2927156;-65
2023/12/19 04:13:30;;;;;;;5.40;4.00;;;;;;;-2.36;100.00;98685.81;1221645;75;2932855;-66
2023/12/19 04:16:03;;;;;;;7.20;3.80;;;;;;;-2.35;100.00;98687.38;1223321;75;2928643;-66
2023/12/19 04:18:36;;;;;;;4.25;3.25;;;;;;;-2.43;100.00;98691.09;1223099;75;2930935;-63
2023/12/19 04:21:11;;;;;;;5.45;3.85;;;;;;;-2.42;100.00;98682.69;1222621;75;2927389;-67
2023/12/19 04:23:43;;;;;;;5.95;3.60;;;;;;;-2.46;100.00;98681.84;1223230;75;2925676;-68
2023/12/19 04:26:24;;;;;;;5.60;3.90;;;;;;;-2.63;100.00;98682.41;1223765;75;2932243;-64
2023/12/19 04:28:57;;;;;;;6.25;4.25;;;;;;;-2.47;100.00;98684.91;1222702;75;2927587;-64
2023/12/19 04:31:30;;;;;;;4.40;3.20;;;;;;;-2.49;100.00;98687.19;1223295;75;2923939;-66
2023/12/19 04:34:02;;;;;;;5.65;3.60;;;;;;;-2.53;100.00;98691.72;1223194;75;2929425;-68
2023/12/19 04:36:36;;;;;;;5.75;4.40;;;;;;;-2.47;100.00;98693.72;1222934;75;2926299;-67
2023/12/19 04:39:09;;;;;;;5.45;3.85;;;;;;;-2.61;100.00;98694.28;1223264;75;2927900;-66
2023/12/19 04:41:45;;;;;;;8.15;5.65;;;;;;;-2.69;100.00;98692.66;1223030;75;2935735;-67
2023/12/19 04:44:18;;;;;;;8.45;5.20;;;;;;;-2.61;100.00;98678.22;1223126;75;2947271;-64
2023/12/19 04:46:51;;;;;;;7.85;5.10;;;;;;;-2.61;100.00;98686.25;1224167;75;2926935;-65
2023/12/19 04:49:23;;;;;;;6.30;4.10;;;;;;;-2.47;100.00;98692.97;1222813;75;2929339;-65
2023/12/19 04:51:56;;;;;;;5.05;3.35;;;;;;;-2.49;100.00;98693.31;1222503;75;2933904;-67
2023/12/19 04:54:29;;;;;;;3.80;2.90;;;;;;;-2.51;100.00;98687.53;1222438;75;2928657;-64
2023/12/19 04:57:05;;;;;;;4.45;3.40;;;;;;;-2.43;100.00;98675.00;1223528;75;2922034;-67
2023/12/19 04:59:38;;;;;;;4.20;2.95;;;;;;;-2.52;100.00;98682.56;1223351;75;2933632;-66
2023/12/19 05:02:11;;;;;;;5.30;3.55;;;;;;;-2.59;100.00;98684.00;1224240;75;2922769;-66
2023/12/19 05:04:44;;;;;;;4.70;3.25;;;;;;;-2.50;100.00;98677.56;1222826;75;2932710;-69
2023/12/19 05:07:16;;;;;;;3.55;2.70;;;;;;;-2.53;100.00;98678.31;1209219;75;3909690;-66
2023/12/19 05:09:50;;;;;;;4.25;2.85;;;;;;;-2.66;100.00;98667.81;1223091;75;2937780;-64
2023/12/19 05:12:25;;;;;;;4.05;2.95;;;;;;;-2.61;100.00;98670.16;1223059;75;2925058;-66
2023/12/19 05:14:58;;;;;;;3.45;2.40;;;;;;;-2.54;100.00;98679.47;1223042;75;2928827;-66
2023/12/19 05:17:31;;;;;;;6.70;4.60;;;;;;;-2.77;100.00;98688.31;1187613;75;5718719;-68
2023/12/19 05:20:04;;;;;;;8.00;4.60;;;;;;;-2.67;100.00;98690.41;1220582;75;2942005;-65
2023/12/19 05:22:37;;;;;;;5.75;4.25;;;;;;;-2.70;100.00;98685.75;1220924;75;2929520;-67
2023/12/19 05:25:11;;;;;;;4.60;3.55;;;;;;;-2.66;100.00;98675.09;1216478;75;3029920;-68
2023/12/19 05:27:47;;;;;;;5.10;3.85;;;;;;;-2.75;100.00;98663.84;1189957;75;5178881;-67
2023/12/19 05:30:20;;;;;;;8.40;5.40;;;;;;;-2.72;100.00;98657.75;1220236;75;2938191;-65
2023/12/19 05:32:53;;;;;;;8.35;5.35;;;;;;;-2.61;100.00;98654.09;1223543;75;2918923;-66
2023/12/19 05:35:26;;;;;;;7.00;4.75;;;;;;;-2.61;100.00;98650.66;1223001;83;2923503;-70
2023/12/19 05:37:59;;;;;;;8.15;4.85;;;;;;;-2.56;100.00;98644.97;1222088;75;2932626;-67
2023/12/19 05:40:32;;;;;;;5.95;4.25;;;;;;;-2.53;100.00;98651.50;1223247;75;2933691;-67
2023/12/19 05:43:08;;;;;;;5.75;3.80;;;;;;;-2.67;100.00;98655.56;1223846;75;2937883;-65
2023/12/19 05:45:41;;;;;;;14.45;9.10;;;;;;;-2.68;100.00;98661.28;1223346;75;2922924;-66
2023/12/19 05:48:13;;;;;;;28.40;16.95;;;;;;;-2.55;100.00;98667.19;1221051;75;2989507;-66
2023/12/19 05:50:47;;;;;;;25.75;15.30;;;;;;;-2.41;100.00;98668.13;1222840;75;2930406;-64
2023/12/19 05:53:20;;;;;;;20.10;12.75;;;;;;;-2.39;100.00;98667.78;1223545;75;2925757;-69
2023/12/19 05:55:53;;;;;;;26.65;16.40;;;;;;;-2.67;100.00;98668.97;1222900;75;2925212;-66
2023/12/19 05:58:28;;;;;;;18.60;11.50;;;;;;;-2.75;100.00;98653.13;1223241;75;2924017;-68
2023/12/19 06:01:01;;;;;;;11.85;8.00;;;;;;;-2.57;100.00;98654.16;1222967;75;2930124;-68
2023/12/19 06:03:36;;;;;;;11.55;7.55;;;;;;;-2.54;100.00;98664.13;1221766;83;2925918;-66
2023/12/19 06:06:09;;;;;;;8.60;5.95;;;;;;;-2.54;100.00;98669.50;1223292;75;2930848;-63
2023/12/19 06:08:42;;;;;;;7.70;5.30;;;;;;;-2.58;100.00;98664.09;1223570;75;2921125;-64
2023/12/19 06:11:16;;;;;;;6.45;4.70;;;;;;;-2.60;100.00;98674.41;1214147;75;2930484;-67
2023/12/19 06:13:51;;;;;;;4.85;3.80;;;;;;;-2.55;100.00;98659.91;1222530;75;2941755;-64
2023/12/19 06:16:24;;;;;;;5.50;3.90;;;;;;;-2.60;100.00;98658.34;1222714;75;2927711;-65
2023/12/19 06:18:57;;;;;;;6.05;4.35;;;;;;;-2.66;100.00;98648.28;1222325;75;2925399;-64
2023/12/19 06:21:30;;;;;;;6.10;3.95;;;;;;;-2.73;100.00;98632.88;1222477;75;2927323;-65
2023/12/19 06:24:03;;;;;;;9.10;5.20;;;;;;;-2.68;100.00;98642.50;1223191;75;2932621;-65
2023/12/19 06:26:36;;;;;;;5.95;4.30;;;;;;;-2.62;100.00;98657.16;1223161;75;2939345;-67
2023/12/19 06:29:12;;;;;;;5.45;3.25;;;;;;;-2.59;100.00;98657.19;1222394;75;2934361;-66
2023/12/19 06:31:47;;;;;;;4.25;2.85;;;;;;;-2.64;100.00;98659.41;1223391;75;2932901;-65
2023/12/19 06:34:20;;;;;;;7.20;3.95;;;;;;;-2.68;100.00;98651.31;1222621;75;2929064;-65
2023/12/19 06:36:52;;;;;;;5.55;3.65;;;;;;;-2.61;100.00;98658.69;1223326;75;2926335;-67
2023/12/19 06:39:25;;;;;;;7.45;5.15;;;;;;;-2.69;100.00;98660.50;1222825;75;2926768;-64
2023/12/19 06:41:58;;;;;;;7.40;4.95;;;;;;;-2.64;100.00;98664.78;1223553;75;2934637;-65
2023/12/19 06:44:34;;;;;;;5.50;4.60;;;;;;;-2.60;100.00;98674.41;1223237;75;2928555;-65
2023/12/19 06:47:07;;;;;;;6.40;5.10;;;;;;;-2.70;100.00;98668.91;1223086;75;2928753;-65
2023/12/19 06:49:40;;;;;;;9.95;6.75;;;;;;;-2.74;100.00;98673.41;1223242;75;2924221;-67
2023/12/19 06:52:13;;;;;;;7.25;5.75;;;;;;;-2.56;100.00;98671.78;1222177;75;2931961;-66
2023/12/19 06:54:46;;;;;;;6.35;4.70;;;;;;;-2.47;100.00;98663.47;1222276;75;2934662;-66
2023/12/19 06:57:19;;;;;;;6.25;4.50;;;;;;;-2.48;100.00;98667.28;1222085;75;2954453;-69
2023/12/19 06:59:54;;;;;;;5.65;4.35;;;;;;;-2.58;100.00;98674.03;1222778;75;2932591;-66
2023/12/19 07:02:27;;;;;;;6.25;4.70;;;;;;;-2.59;100.00;98662.53;1223393;75;2922873;-64
2023/12/19 07:05:00;;;;;;;5.60;4.30;;;;;;;-2.66;100.00;98662.44;1223109;75;2929160;-64
2023/12/19 07:07:33;;;;;;;7.95;5.20;;;;;;;-2.67;100.00;98660.91;1222478;75;2947171;-64
2023/12/19 07:10:06;;;;;;;8.20;5.15;;;;;;;-2.45;100.00;98656.59;1223128;75;2929768;-67
2023/12/19 07:12:41;;;;;;;9.05;5.05;;;;;;;-2.45;100.00;98651.25;1222441;75;2925874;-66
2023/12/19 07:15:17;;;;;;;7.10;4.70;;;;;;;-2.34;100.00;98650.59;1223212;75;2938873;-63
2023/12/19 07:17:50;;;;;;;6.70;4.55;;;;;;;-2.32;100.00;98651.78;1222649;75;2921877;-65
2023/12/19 07:20:22;;;;;;;5.25;3.85;;;;;;;-2.25;100.00;98646.50;1222832;67;2932787;-65
2023/12/19 07:23:03;;;;;;;6.60;4.60;;;;;;;-2.18;100.00;98649.25;1204752;75;4212702;-64
2023/12/19 07:25:37;;;;;;;4.60;3.20;;;;;;;-2.00;100.00;98643.31;1222428;75;2929324;-66
2023/12/19 07:28:10;;;;;;;6.35;3.65;;;;;;;-1.96;100.00;98641.44;1223070;75;2917994;-63
2023/12/19 07:30:48;;;;;;;4.90;3.50;;;;;;;-1.80;100.00;98644.69;1221872;75;2921329;-68
2023/12/19 07:33:21;;;;;;;5.15;3.50;;;;;;;-1.67;100.00;98644.44;1223574;75;2929863;-67
2023/12/19 07:35:54;;;;;;;3.60;2.80;;;;;;;-1.64;100.00;98632.94;1222074;75;2927103;-67
2023/12/19 07:38:26;;;;;;;4.65;3.25;;;;;;;-1.27;100.00;98638.25;1219911;75;2925599;-63
2023/12/19 07:40:59;;;;;;;3.65;3.10;;;;;;;-0.69;100.00;98640.16;1222539;75;2939060;-66
2023/12/19 07:43:32;;;;;;;4.20;2.80;;;;;;;0.28;100.00;98642.44;1223167;75;2933533;-67
2023/12/19 07:46:08;;;;;;;4.00;2.75;;;;;;;1.23;100.00;98645.53;1221802;75;2929539;-66
2023/12/19 07:48:41;;;;;;;3.55;2.60;;;;;;;1.33;100.00;98654.75;1223493;75;2923860;-69
2023/12/19 07:51:19;;;;;;;4.50;2.90;;;;;;;1.69;100.00;98650.03;1221852;75;2924962;-65
2023/12/19 07:54:00;;;;;;;4.70;3.30;;;;;;;1.35;100.00;98658.59;1222242;75;2923398;-68
2023/12/19 07:56:46;;;;;;;5.35;3.40;;;;;;;1.39;100.00;98661.28;1108264;75;6628995;-66
2023/12/19 07:59:18;;;;;;;5.05;3.70;;;;;;;1.48;100.00;98657.03;1222725;75;2931984;-68
2023/12/19 08:01:54;;;;;;;5.10;3.95;;;;;;;1.42;100.00;98665.91;1223216;75;2936990;-65
2023/12/19 08:04:27;;;;;;;4.95;3.30;;;;;;;1.54;100.00;98662.81;1222755;75;2935231;-67
2023/12/19 08:07:02;;;;;;;4.15;3.40;;;;;;;1.61;100.00;98662.78;1223189;75;2933419;-66
2023/12/19 08:09:35;;;;;;;4.25;3.50;;;;;;;1.58;100.00;98658.16;1220583;75;2925285;-64
2023/12/19 08:12:10;;;;;;;6.45;4.60;;;;;;;1.49;100.00;98655.09;1221770;75;2925051;-66
2023/12/19 08:14:42;;;;;;;7.35;5.25;;;;;;;1.30;100.00;98645.53;1222357;75;2919806;-67
2023/12/19 08:17:18;;;;;;;8.50;5.50;;;;;;;1.49;100.00;98637.00;1223377;75;2922799;-64
2023/12/19 08:19:51;;;;;;;7.10;5.45;;;;;;;1.76;100.00;98633.81;1222947;75;2918405;-65
2023/12/19 08:22:26;;;;;;;5.95;4.40;;;;;;;2.05;100.00;98642.53;1223235;75;2927262;-64
2023/12/19 08:24:59;;;;;;;6.60;4.10;;;;;;;1.98;100.00;98634.47;1223045;75;2930276;-66
2023/12/19 08:27:35;;;;;;;5.65;3.95;;;;;;;2.03;100.00;98638.69;1209446;75;3993375;-66
2023/12/19 08:30:10;;;;;;;4.70;3.60;;;;;;;2.16;100.00;98633.59;1222734;75;2927396;-65
2023/12/19 08:32:46;;;;;;;4.65;3.35;;;;;;;2.19;100.00;98627.41;1223513;75;2919347;-67
2023/12/19 08:35:19;;;;;;;6.20;3.95;;;;;;;2.22;100.00;98632.03;1222724;75;2927071;-69
2023/12/19 08:37:52;;;;;;;5.55;3.35;;;;;;;2.98;100.00;98644.59;1224131;75;2931985;-65
2023/12/19 08:40:25;;;;;;;5.95;3.75;;;;;;;3.27;100.00;98643.53;1220847;75;2937201;-66
2023/12/19 08:42:58;;;;;;;11.85;6.95;;;;;;;2.51;100.00;98643.44;1223031;75;2944616;-69
2023/12/19 08:45:30;;;;;;;10.95;7.60;;;;;;;2.58;100.00;98645.31;1223510;75;2924108;-64
2023/12/19 08:48:07;;;;;;;9.10;6.60;;;;;;;2.55;100.00;98642.25;1224216;75;2923660;-65
2023/12/19 08:50:39;;;;;;;8.70;5.75;;;;;;;2.86;100.00;98647.81;1223330;75;2923811;-65
2023/12/19 08:53:12;;;;;;;11.15;6.10;;;;;;;2.97;100.00;98645.75;1224076;75;2903047;-66
2023/12/19 08:55:47;;;;;;;8.70;5.60;;;;;;;3.25;100.00;98640.47;1222978;75;2923384;-66
2023/12/19 08:58:20;;;;;;;8.10;5.30;;;;;;;3.65;100.00;98643.53;1222298;75;2920698;-66
2023/12/19 09:00:54;;;;;;;7.70;4.70;;;;;;;4.12;100.00;98632.91;1222991;75;2924982;-70
2023/12/19 09:03:30;;;;;;;9.95;5.25;;;;;;;3.94;100.00;98641.25;1222529;75;2922541;-66
2023/12/19 09:06:03;;;;;;;12.35;6.30;;;;;;;4.23;100.00;98639.72;1222502;75;2987662;-67
2023/12/19 09:08:35;;;;;;;11.30;6.50;;;;;;;4.37;100.00;98635.25;1222323;75;2926858;-64
2023/12/19 09:11:09;;;;;;;9.30;6.05;;;;;;;4.73;100.00;98629.28;1221622;75;2924370;-65
2023/12/19 09:13:42;;;;;;;12.95;7.75;;;;;;;4.90;99.48;98628.22;1224049;75;2923973;-66
2023/12/19 09:16:15;;;;;;;13.25;7.45;;;;;;;5.26;95.71;98622.19;1221703;75;2932914;-69
2023/12/19 09:18:51;;;;;;;10.30;7.25;;;;;;;6.32;88.21;98612.28;1223015;75;2861279;-66
2023/12/19 09:21:24;;;;;;;14.10;8.70;;;;;;;5.93;86.34;98614.66;1220793;75;2935399;-67
2023/12/19 09:23:57;;;;;;;19.15;9.60;;;;;;;5.78;87.08;98607.22;1222561;75;2924491;-67
2023/12/19 09:26:31;;;;;;;18.95;12.00;;;;;;;6.43;83.10;98593.78;1223010;75;2925415;-67
2023/12/19 09:29:04;;;;;;;25.80;16.10;;;;;;;6.90;79.95;98585.22;1223207;75;2937480;-66
2023/12/19 09:31:37;;;;;;;24.80;14.90;;;;;;;7.55;77.84;98581.59;1222124;75;2930169;-67
2023/12/19 09:34:12;;;;;;;19.55;13.00;;;;;;;7.61;75.26;98574.38;1218850;75;3084512;-66
2023/12/19 09:36:45;;;;;;;18.60;11.90;;;;;;;8.47;72.60;98582.75;1222426;75;2919968;-67
2023/12/19 09:39:18;;;;;;;20.10;11.70;;;;;;;8.48;69.40;98569.88;1223106;75;2923780;-65
2023/12/19 09:41:51;;;;;;;16.65;11.65;;;;;;;9.16;68.28;98570.34;1209158;75;4079124;-68
2023/12/19 09:44:24;;;;;;;16.80;9.90;;;;;;;9.99;65.48;98566.16;1222800;75;2925612;-71
2023/12/19 09:46:57;;;;;;;16.85;12.00;;;;;;;9.43;65.66;98567.06;1223791;75;2925661;-68
2023/12/19 09:49:39;;;;;;;15.45;10.10;;;;;;;10.22;63.56;98562.16;1221769;75;2930068;-68
2023/12/19 09:52:14;;;;;;;16.70;10.85;;;;;;;10.81;62.63;98559.41;1224664;75;2917108;-65
2023/12/19 09:54:47;;;;;;;15.40;10.45;;;;;;;11.86;58.79;98556.41;1222533;75;2926068;-66
2023/12/19 09:57:21;;;;;;;15.05;9.75;;;;;;;12.58;57.37;98551.06;1223480;75;2915838;-67
2023/12/19 09:59:56;;;;;;;16.15;10.75;;;;;;;12.96;55.67;98546.84;1223822;75;2931788;-69
2023/12/19 10:02:29;;;;;;;18.90;11.65;;;;;;;12.45;56.53;98538.78;1223833;75;2921263;-67
2023/12/19 10:05:05;;;;;;;22.15;12.65;;;;;;;12.94;54.78;98534.78;1224021;75;2921343;-67
2023/12/19 10:07:38;;;;;;;13.70;9.30;;;;;;;15.55;50.22;98519.47;1223547;75;2928637;-67
2023/12/19 10:10:12;;;;;;;10.95;8.45;;;;;;;17.36;45.81;98508.13;1224588;75;2921686;-65
2023/12/19 10:12:54;;;;;;;18.05;10.70;;;;;;;15.61;47.68;98502.97;1222901;75;2925578;-66
2023/12/19 10:15:28;;;;;;;15.50;10.00;;;;;;;17.60;44.94;98495.81;1223605;75;2924325;-68
2023/12/19 10:18:11;;;;;;;16.95;9.90;;;;;;;18.80;42.46;98481.22;1223888;75;2918750;-67
2023/12/19 10:20:46;;;;;;;13.85;10.50;;;;;;;18.77;42.37;98479.50;1222908;75;2921649;-66
2023/12/19 10:23:24;;;;;;;14.60;9.30;;;;;;;18.86;42.45;98479.94;1223290;75;2943554;-70
2023/12/19 10:25:57;;;;;;;;;;;;;;;17.09;43.57;98478.41;1223414;75;2921795;-67
2023/12/19 10:28:30;;;;;;;12.50;8.65;;;;;;;17.27;42.87;98469.66;1224113;75;2922083;-71
2023/12/19 10:31:15;;;;;;;12.45;8.70;;;;;;;18.64;41.63;98447.50;1222755;75;2922806;-67
2023/12/19 10:33:49;;;;;;;13.75;8.70;;;;;;;17.07;42.60;98451.25;1221353;75;3066411;-67
2023/12/19 10:36:32;;;;;;;13.40;9.25;;;;;;;18.76;42.36;98442.69;1223566;75;2919061;-66
2023/12/19 10:39:07;;;;;;;12.05;7.35;;;;;;;18.59;41.73;98434.41;1222303;75;2941996;-65
2023/12/19 10:41:43;;;;;;;9.80;6.10;;;;;;;18.01;40.37;98414.97;1106084;75;14218103;-65
2023/12/19 10:44:17;;;;;;;11.45;5.85;;;;;;;19.90;38.07;98421.13;1222609;75;2947815;-63
2023/12/19 10:46:50;;;;;;;11.05;6.55;;;;;;;18.50;39.18;98412.53;1206035;75;4106175;-65
2023/12/19 10:49:24;;;;;;;11.65;6.15;;;;;;;18.99;39.37;98409.25;1223925;75;2921591;-69
2023/12/19 10:52:05;;;;;;;9.65;6.10;;;;;;;18.86;39.63;98410.59;1224067;75;2922000;-71
2023/12/19 10:54:40;;;;;;;7.75;5.55;;;;;;;22.30;36.98;98400.56;1222606;75;2927382;-66
2023/12/19 10:57:19;;;;;;;9.55;5.30;;;;;;;22.69;35.18;98398.97;1223223;75;2925571;-69
2023/12/19 11:00:01;;;;;;;9.80;5.55;;;;;;;22.53;34.93;98389.66;1222476;75;2943842;-69
2023/12/19 11:02:45;;;;;;;10.35;5.35;;;;;;;22.84;34.18;98384.44;1222804;75;2923728;-66
2023/12/19 11:05:27;;;;;;;12.05;6.75;;;;;;;20.64;36.09;98382.84;1222259;75;2922049;-68
2023/12/19 11:08:07;;;;;;;10.20;6.30;;;;;;;23.85;33.82;98370.03;1223542;75;2926268;-68
2023/12/19 11:10:45;;;;;;;7.60;4.75;;;;;;;25.91;30.25;98364.09;1223299;75;2928980;-66
2023/12/19 11:13:18;;;;;;;;;;;;;;;25.31;31.51;98359.31;1224715;75;2925824;-67
2023/12/19 11:15:54;;;;;;;;;;;;;;;23.58;32.27;98348.56;1224783;75;2921959;-68
2023/12/19 11:18:37;;;;;;;7.90;5.55;;;;;;;24.90;30.85;98342.25;1223542;75;2930857;-68
2023/12/19 11:21:18;;;;;;;7.40;5.05;;;;;;;27.08;29.02;98334.88;1223333;75;2930179;-64
2023/12/19 11:24:11;;;;;;;8.30;5.30;;;;;;;25.67;29.85;98343.00;1223919;75;2921063;-66
2023/12/19 11:26:51;;;;;;;9.65;6.60;;;;;;;25.26;30.63;98341.38;1223563;75;2934133;-66
2023/12/19 11:29:47;;;;;;;8.70;5.80;;;;;;;25.24;31.00;98332.78;1223717;75;2975924;-68
2023/12/19 11:32:40;;;;;;;10.00;6.45;;;;;;;23.16;32.71;98331.13;1223180;75;2936342;-66
2023/12/19 11:35:16;;;;;;;9.55;6.45;;;;;;;22.97;33.78;98340.44;1223087;75;2930671;-70
2023/12/19 11:37:49;;;;;;;9.10;6.25;;;;;;;22.93;33.72;98323.28;1222103;75;2949167;-71
2023/12/19 11:41:01;;;;;;;9.15;5.90;;;;;;;24.78;30.99;98308.25;1223042;75;2929777;-66
2023/12/19 11:44:00;;;;;;;10.25;6.40;;;;;;;22.65;32.37;98304.41;1223290;75;2924835;-69
2023/12/19 11:46:33;;;;;;;10.65;6.00;;;;;;;22.77;32.29;98296.50;1223607;75;2935443;-67